Time,TemperatureF,DewpointF,PressureIn,WindDirection,WindDirectionDegrees,WindSpeedMPH,WindSpeedGustMPH,Humidity,HourlyPrecipIn,Conditions,Clouds,dailyrainin,SoftwareType,DateUTC
2013-08-19 00:01:00,80.4,78.5,30.10,North,355,0.0,0.0,94,0.00,,,0.00,WUHU216DAVISVP2,2013-08-19 04:01:00,
2013-08-19 00:06:00,80.5,78.6,30.10,North,355,0.0,0.0,94,0.00,,,0.00,WUHU216DAVISVP2,2013-08-19 04:06:00,
2013-08-19 00:11:00,80.5,78.6,30.10,North,355,0.0,0.0,94,0.00,,,0.00,WUHU216DAVISVP2,2013-08-19 04:11:00,
2013-08-19 00:16:00,80.5,78.6,30.10,North,355,0.0,0.0,94,0.00,,,0.00,WUHU216DAVISVP2,2013-08-19 04:16:00,
2013-08-19 00:21:00,80.5,78.6,30.10,North,355,0.0,0.0,94,0.00,,,0.00,WUHU216DAVISVP2,2013-08-19 04:21:00,
2013-08-19 00:26:00,80.6,78.7,30.10,North,355,0.0,0.0,94,0.00,,,0.00,WUHU216DAVISVP2,2013-08-19 04:26:00,
2013-08-19 00:31:00,80.6,78.7,30.10,North,355,0.0,1.0,94,0.00,,,0.00,WUHU216DAVISVP2,2013-08-19 04:31:00,
2013-08-19 00:36:00,80.6,78.7,30.10,North,355,0.0,1.0,94,0.00,,,0.00,WUHU216DAVISVP2,2013-08-19 04:36:00,
2013-08-19 00:41:00,80.6,78.7,30.09,North,355,0.0,0.0,94,0.00,,,0.00,WUHU216DAVISVP2,2013-08-19 04:41:00,
2013-08-19 00:46:00,80.5,78.6,30.09,North,355,0.0,0.0,94,0.00,,,0.00,WUHU216DAVISVP2,2013-08-19 04:46:00,
2013-08-19 00:51:00,80.5,78.6,30.09,North,355,0.0,0.0,94,0.00,,,0.00,WUHU216DAVISVP2,2013-08-19 04:51:00,
2013-08-19 00:56:00,80.4,78.5,30.09,North,355,0.0,0.0,94,0.00,,,0.00,WUHU216DAVISVP2,2013-08-19 04:56:00,
2013-08-19 01:01:00,80.4,78.5,30.09,North,355,0.0,0.0,94,0.00,,,0.00,WUHU216DAVISVP2,2013-08-19 05:01:00,
2013-08-19 01:06:00,80.3,78.4,30.09,North,355,0.0,0.0,94,0.00,,,0.00,WUHU216DAVISVP2,2013-08-19 05:06:00,
2013-08-19 01:11:00,80.3,78.4,30.09,North,355,0.0,0.0,94,0.00,,,0.00,WUHU216DAVISVP2,2013-08-19 05:11:00,
2013-08-19 01:16:00,80.2,78.3,30.09,North,355,0.0,0.0,94,0.00,,,0.00,WUHU216DAVISVP2,2013-08-19 05:16:00,
2013-08-19 01:21:00,80.2,78.6,30.09,North,355,0.0,0.0,95,0.00,,,0.00,WUHU216DAVISVP2,2013-08-19 05:21:00,
2013-08-19 01:26:00,80.1,78.5,30.08,North,355,0.0,0.0,95,0.00,,,0.00,WUHU216DAVISVP2,2013-08-19 05:26:00,
2013-08-19 01:31:00,80.0,78.4,30.08,North,355,0.0,0.0,95,0.00,,,0.00,WUHU216DAVISVP2,2013-08-19 05:31:00,
2013-08-19 01:36:00,80.0,78.4,30.08,North,355,0.0,0.0,95,0.00,,,0.00,WUHU216DAVISVP2,2013-08-19 05:36:00,
2013-08-19 01:41:00,80.0,78.4,30.08,North,355,0.0,0.0,95,0.00,,,0.00,WUHU216DAVISVP2,2013-08-19 05:41:00,
2013-08-19 01:46:00,80.0,78.4,30.08,North,355,0.0,0.0,95,0.00,,,0.00,WUHU216DAVISVP2,2013-08-19 05:46:00,
2013-08-19 01:51:00,80.0,78.4,30.08,North,355,0.0,0.0,95,0.00,,,0.00,WUHU216DAVISVP2,2013-08-19 05:51:00,
2013-08-19 01:56:00,80.1,78.5,30.08,North,355,0.0,0.0,95,0.00,,,0.00,WUHU216DAVISVP2,2013-08-19 05:56:00,
2013-08-19 02:01:00,80.0,78.4,30.07,North,355,0.0,0.0,95,0.00,,,0.00,WUHU216DAVISVP2,2013-08-19 06:01:00,
2013-08-19 02:06:00,80.0,78.4,30.07,North,355,0.0,0.0,95,0.00,,,0.00,WUHU216DAVISVP2,2013-08-19 06:06:00,
2013-08-19 02:11:00,80.0,78.7,30.08,North,355,0.0,1.0,96,0.00,,,0.00,WUHU216DAVISVP2,2013-08-19 06:11:00,
2013-08-19 02:16:00,80.0,78.7,30.08,North,355,0.0,1.0,96,0.00,,,0.00,WUHU216DAVISVP2,2013-08-19 06:16:00,
2013-08-19 02:21:00,80.0,78.7,30.07,North,355,0.0,0.0,96,0.00,,,0.00,WUHU216DAVISVP2,2013-08-19 06:21:00,
2013-08-19 02:26:00,80.0,78.7,30.07,North,355,0.0,0.0,96,0.00,,,0.00,WUHU216DAVISVP2,2013-08-19 06:26:00,
2013-08-19 02:31:00,79.9,78.6,30.07,North,355,0.0,0.0,96,0.00,,,0.00,WUHU216DAVISVP2,2013-08-19 06:31:00,
2013-08-19 02:36:00,80.0,78.7,30.07,North,355,0.0,0.0,96,0.00,,,0.00,WUHU216DAVISVP2,2013-08-19 06:36:00,
2013-08-19 02:41:00,80.0,78.7,30.07,North,355,0.0,0.0,96,0.00,,,0.00,WUHU216DAVISVP2,2013-08-19 06:41:00,
2013-08-19 02:46:00,80.0,78.7,30.07,North,355,0.0,0.0,96,0.00,,,0.00,WUHU216DAVISVP2,2013-08-19 06:46:00,
2013-08-19 02:51:00,80.0,78.7,30.07,North,355,0.0,0.0,96,0.00,,,0.00,WUHU216DAVISVP2,2013-08-19 06:51:00,
2013-08-19 02:56:00,80.1,78.8,30.07,North,355,0.0,0.0,96,0.00,,,0.00,WUHU216DAVISVP2,2013-08-19 06:56:00,
2013-08-19 03:01:00,80.1,78.8,30.07,North,355,0.0,1.0,96,0.00,,,0.00,WUHU216DAVISVP2,2013-08-19 07:01:00,
2013-08-19 03:06:00,80.2,78.9,30.06,North,355,0.0,1.0,96,0.00,,,0.00,WUHU216DAVISVP2,2013-08-19 07:06:00,
2013-08-19 03:11:00,80.2,78.9,30.06,North,355,0.0,0.0,96,0.00,,,0.00,WUHU216DAVISVP2,2013-08-19 07:11:00,
2013-08-19 03:16:00,80.2,78.9,30.06,North,355,0.0,0.0,96,0.00,,,0.00,WUHU216DAVISVP2,2013-08-19 07:16:00,
2013-08-19 03:21:00,80.2,78.9,30.06,North,355,0.0,0.0,96,0.00,,,0.00,WUHU216DAVISVP2,2013-08-19 07:21:00,
2013-08-19 03:26:00,80.2,78.9,30.05,North,355,0.0,0.0,96,0.00,,,0.00,WUHU216DAVISVP2,2013-08-19 07:26:00,
2013-08-19 03:31:00,80.2,78.9,30.05,SSW,208,0.0,2.0,96,0.00,,,0.00,WUHU216DAVISVP2,2013-08-19 07:31:00,
2013-08-19 03:36:00,80.2,78.9,30.05,SSW,208,0.0,2.0,96,0.00,,,0.00,WUHU216DAVISVP2,2013-08-19 07:36:00,
2013-08-19 03:41:00,80.2,78.9,30.05,SSW,208,0.0,1.0,96,0.00,,,0.00,WUHU216DAVISVP2,2013-08-19 07:41:00,
2013-08-19 03:46:00,80.2,78.9,30.05,SSW,208,0.0,1.0,96,0.00,,,0.00,WUHU216DAVISVP2,2013-08-19 07:46:00,
2013-08-19 03:51:00,80.1,78.8,30.05,SSW,209,0.0,2.0,96,0.00,,,0.00,WUHU216DAVISVP2,2013-08-19 07:51:00,
2013-08-19 03:56:00,80.1,78.8,30.05,SSW,209,0.0,2.0,96,0.00,,,0.00,WUHU216DAVISVP2,2013-08-19 07:56:00,
2013-08-19 04:01:00,80.2,78.9,30.05,SSW,209,0.0,1.0,96,0.00,,,0.00,WUHU216DAVISVP2,2013-08-19 08:01:00,
2013-08-19 04:06:00,80.2,78.9,30.05,ENE,75,1.0,2.0,96,0.00,,,0.00,WUHU216DAVISVP2,2013-08-19 08:06:00,
2013-08-19 04:11:00,79.6,77.1,30.05,ENE,75,0.0,2.0,92,0.00,,,0.00,WUHU216DAVISVP2,2013-08-19 08:11:00,
2013-08-19 04:16:00,79.5,76.6,30.05,ENE,75,0.0,2.0,91,0.00,,,0.00,WUHU216DAVISVP2,2013-08-19 08:16:00,
2013-08-19 04:21:00,79.6,76.7,30.05,ENE,75,0.0,2.0,91,0.00,,,0.00,WUHU216DAVISVP2,2013-08-19 08:21:00,
2013-08-19 04:26:00,79.4,76.2,30.05,ENE,75,0.0,1.0,90,0.00,,,0.00,WUHU216DAVISVP2,2013-08-19 08:26:00,
2013-08-19 04:31:00,79.1,75.9,30.04,ENE,75,0.0,0.0,90,0.00,,,0.00,WUHU216DAVISVP2,2013-08-19 08:31:00,
2013-08-19 04:36:00,79.0,75.8,30.04,ENE,75,0.0,0.0,90,0.00,,,0.00,WUHU216DAVISVP2,2013-08-19 08:36:00,
2013-08-19 04:41:00,78.9,75.7,30.04,ENE,75,0.0,0.0,90,0.00,,,0.00,WUHU216DAVISVP2,2013-08-19 08:41:00,
2013-08-19 04:46:00,78.9,76.0,30.04,ENE,75,0.0,1.0,91,0.00,,,0.00,WUHU216DAVISVP2,2013-08-19 08:46:00,
2013-08-19 04:51:00,78.9,76.0,30.04,ENE,75,0.0,1.0,91,0.00,,,0.00,WUHU216DAVISVP2,2013-08-19 08:51:00,
2013-08-19 04:56:00,78.9,76.0,30.05,ENE,75,0.0,0.0,91,0.00,,,0.00,WUHU216DAVISVP2,2013-08-19 08:56:00,
2013-08-19 05:01:00,78.9,76.0,30.04,ENE,75,0.0,0.0,91,0.00,,,0.00,WUHU216DAVISVP2,2013-08-19 09:01:00,
2013-08-19 05:06:00,78.8,76.3,30.04,ENE,75,0.0,0.0,92,0.00,,,0.00,WUHU216DAVISVP2,2013-08-19 09:06:00,
2013-08-19 05:11:00,78.8,76.3,30.04,ENE,75,0.0,0.0,92,0.00,,,0.00,WUHU216DAVISVP2,2013-08-19 09:11:00,
2013-08-19 05:16:00,78.7,76.2,30.04,ENE,75,0.0,0.0,92,0.00,,,0.00,WUHU216DAVISVP2,2013-08-19 09:16:00,
2013-08-19 05:21:00,78.7,76.2,30.04,ENE,75,0.0,0.0,92,0.00,,,0.00,WUHU216DAVISVP2,2013-08-19 09:21:00,
2013-08-19 05:26:00,78.6,76.1,30.04,ENE,75,0.0,0.0,92,0.00,,,0.00,WUHU216DAVISVP2,2013-08-19 09:26:00,
2013-08-19 05:31:00,78.5,76.0,30.04,ENE,75,0.0,0.0,92,0.00,,,0.00,WUHU216DAVISVP2,2013-08-19 09:31:00,
2013-08-19 05:36:00,78.4,75.9,30.04,ENE,75,0.0,0.0,92,0.00,,,0.00,WUHU216DAVISVP2,2013-08-19 09:36:00,
2013-08-19 05:41:00,78.3,75.8,30.04,ENE,75,0.0,0.0,92,0.00,,,0.00,WUHU216DAVISVP2,2013-08-19 09:41:00,
2013-08-19 05:46:00,78.2,75.7,30.04,ENE,75,0.0,0.0,92,0.00,,,0.00,WUHU216DAVISVP2,2013-08-19 09:46:00,
2013-08-19 05:51:00,78.1,75.9,30.04,ENE,75,0.0,0.0,93,0.00,,,0.00,WUHU216DAVISVP2,2013-08-19 09:51:00,
2013-08-19 05:56:00,78.0,75.8,30.04,ENE,75,0.0,0.0,93,0.00,,,0.00,WUHU216DAVISVP2,2013-08-19 09:56:00,
2013-08-19 06:01:00,77.9,75.7,30.04,ENE,75,0.0,0.0,93,0.00,,,0.00,WUHU216DAVISVP2,2013-08-19 10:01:00,
2013-08-19 06:06:00,77.8,75.6,30.04,ENE,75,0.0,0.0,93,0.00,,,0.00,WUHU216DAVISVP2,2013-08-19 10:06:00,
2013-08-19 06:11:00,77.7,75.8,30.04,ENE,75,0.0,0.0,94,0.00,,,0.00,WUHU216DAVISVP2,2013-08-19 10:11:00,
2013-08-19 06:16:00,77.7,75.8,30.04,ENE,75,0.0,0.0,94,0.00,,,0.00,WUHU216DAVISVP2,2013-08-19 10:16:00,
2013-08-19 06:21:00,77.7,75.8,30.04,ENE,75,0.0,0.0,94,0.00,,,0.00,WUHU216DAVISVP2,2013-08-19 10:21:00,
2013-08-19 06:26:00,77.7,76.1,30.04,ENE,75,0.0,0.0,95,0.00,,,0.00,WUHU216DAVISVP2,2013-08-19 10:26:00,
2013-08-19 06:31:00,77.8,76.2,30.04,ENE,75,0.0,0.0,95,0.00,,,0.00,WUHU216DAVISVP2,2013-08-19 10:31:00,
2013-08-19 06:36:00,77.9,76.6,30.04,ENE,75,0.0,0.0,96,0.00,,,0.00,WUHU216DAVISVP2,2013-08-19 10:36:00,
2013-08-19 06:41:00,77.9,76.3,30.04,ENE,75,0.0,0.0,95,0.00,,,0.00,WUHU216DAVISVP2,2013-08-19 10:41:00,
2013-08-19 06:46:00,77.8,76.5,30.05,ENE,75,0.0,0.0,96,0.00,,,0.00,WUHU216DAVISVP2,2013-08-19 10:46:00,
2013-08-19 06:51:00,77.8,76.5,30.05,ENE,75,0.0,0.0,96,0.00,,,0.00,WUHU216DAVISVP2,2013-08-19 10:51:00,
2013-08-19 06:56:00,77.8,76.5,30.05,ENE,75,0.0,0.0,96,0.00,,,0.00,WUHU216DAVISVP2,2013-08-19 10:56:00,
2013-08-19 07:01:00,77.7,76.4,30.05,ENE,75,0.0,0.0,96,0.00,,,0.00,WUHU216DAVISVP2,2013-08-19 11:01:00,
2013-08-19 07:06:00,77.6,76.3,30.05,ENE,75,0.0,0.0,96,0.00,,,0.00,WUHU216DAVISVP2,2013-08-19 11:06:00,
2013-08-19 07:11:00,77.5,76.2,30.05,ENE,75,0.0,0.0,96,0.00,,,0.00,WUHU216DAVISVP2,2013-08-19 11:11:00,
2013-08-19 07:16:00,77.6,76.7,30.05,ENE,75,0.0,0.0,97,0.00,,,0.00,WUHU216DAVISVP2,2013-08-19 11:16:00,
2013-08-19 07:21:00,77.6,76.7,30.05,ENE,75,0.0,0.0,97,0.00,,,0.00,WUHU216DAVISVP2,2013-08-19 11:21:00,
2013-08-19 07:26:00,77.5,76.2,30.05,ENE,75,0.0,0.0,96,0.00,,,0.00,WUHU216DAVISVP2,2013-08-19 11:26:00,
2013-08-19 07:31:00,77.6,76.7,30.05,ENE,75,0.0,0.0,97,0.00,,,0.00,WUHU216DAVISVP2,2013-08-19 11:31:00,
2013-08-19 07:36:00,77.7,76.8,30.05,ENE,75,0.0,0.0,97,0.00,,,0.00,WUHU216DAVISVP2,2013-08-19 11:36:00,
2013-08-19 07:41:00,77.7,76.8,30.05,ENE,75,0.0,0.0,97,0.00,,,0.00,WUHU216DAVISVP2,2013-08-19 11:41:00,
2013-08-19 07:46:00,77.7,76.8,30.05,ENE,75,0.0,0.0,97,0.00,,,0.00,WUHU216DAVISVP2,2013-08-19 11:46:00,
2013-08-19 07:51:00,77.7,76.8,30.05,ENE,75,0.0,0.0,97,0.00,,,0.00,WUHU216DAVISVP2,2013-08-19 11:51:00,
2013-08-19 07:56:00,77.8,76.9,30.05,ENE,75,0.0,0.0,97,0.00,,,0.00,WUHU216DAVISVP2,2013-08-19 11:56:00,
2013-08-19 08:01:00,77.8,76.9,30.05,ENE,75,0.0,0.0,97,0.00,,,0.00,WUHU216DAVISVP2,2013-08-19 12:01:00,
2013-08-19 08:06:00,77.9,77.0,30.05,ENE,75,0.0,0.0,97,0.00,,,0.00,WUHU216DAVISVP2,2013-08-19 12:06:00,
2013-08-19 08:11:00,78.0,77.4,30.06,ENE,75,0.0,0.0,98,0.00,,,0.00,WUHU216DAVISVP2,2013-08-19 12:11:00,
2013-08-19 08:16:00,78.2,77.6,30.06,ENE,75,0.0,0.0,98,0.00,,,0.00,WUHU216DAVISVP2,2013-08-19 12:16:00,
2013-08-19 08:21:00,78.5,77.9,30.06,ENE,75,0.0,0.0,98,0.00,,,0.00,WUHU216DAVISVP2,2013-08-19 12:21:00,
2013-08-19 08:26:00,78.9,78.3,30.06,ENE,75,0.0,0.0,98,0.00,,,0.00,WUHU216DAVISVP2,2013-08-19 12:26:00,
2013-08-19 08:31:00,79.1,78.5,30.06,ENE,75,0.0,0.0,98,0.00,,,0.00,WUHU216DAVISVP2,2013-08-19 12:31:00,
2013-08-19 08:36:00,79.4,78.8,30.06,ESE,117,0.0,0.0,98,0.00,,,0.00,WUHU216DAVISVP2,2013-08-19 12:36:00,
2013-08-19 08:40:00,79.6,79.0,30.07,WNW,301,0.0,1.0,98,0.00,,,0.00,WUHU216DAVISVP2,2013-08-19 12:40:00,
2013-08-19 08:45:00,79.9,78.9,30.06,WNW,301,0.0,1.0,97,0.00,,,0.00,WUHU216DAVISVP2,2013-08-19 12:45:00,
2013-08-19 08:50:00,80.1,79.1,30.07,WNW,301,0.0,1.0,97,0.00,,,0.00,WUHU216DAVISVP2,2013-08-19 12:50:00,
2013-08-19 08:55:00,80.4,79.4,30.07,WNW,301,0.0,1.0,97,0.00,,,0.00,WUHU216DAVISVP2,2013-08-19 12:55:00,
2013-08-19 09:00:00,80.9,79.6,30.07,WNW,301,0.0,1.0,96,0.00,,,0.00,WUHU216DAVISVP2,2013-08-19 13:00:00,
2013-08-19 09:05:00,81.3,80.0,30.07,WNW,302,0.0,1.0,96,0.00,,,0.00,WUHU216DAVISVP2,2013-08-19 13:05:00,
2013-08-19 09:10:00,81.9,80.0,30.07,WNW,302,0.0,1.0,94,0.00,,,0.00,WUHU216DAVISVP2,2013-08-19 13:10:00,
2013-08-19 09:15:00,82.2,79.6,30.07,NNW,337,0.0,1.0,92,0.00,,,0.00,WUHU216DAVISVP2,2013-08-19 13:15:00,
2013-08-19 09:20:00,82.6,79.7,30.07,NNW,337,0.0,1.0,91,0.00,,,0.00,WUHU216DAVISVP2,2013-08-19 13:20:00,
2013-08-19 09:25:00,83.0,79.8,30.07,NNW,337,0.0,1.0,90,0.00,,,0.00,WUHU216DAVISVP2,2013-08-19 13:25:00,
2013-08-19 09:30:00,83.3,79.1,30.07,NNW,338,0.0,1.0,87,0.00,,,0.00,WUHU216DAVISVP2,2013-08-19 13:30:00,
2013-08-19 09:35:00,83.6,79.4,30.07,SW,216,0.0,1.0,87,0.00,,,0.00,WUHU216DAVISVP2,2013-08-19 13:35:00,
2013-08-19 09:40:00,83.8,78.5,30.07,SW,229,0.0,4.0,84,0.00,,,0.00,WUHU216DAVISVP2,2013-08-19 13:40:00,
2013-08-19 09:45:00,83.6,78.0,30.07,NNE,17,0.0,4.0,83,0.00,,,0.00,WUHU216DAVISVP2,2013-08-19 13:45:00,
2013-08-19 09:50:00,83.4,77.8,30.07,SW,223,0.0,1.0,83,0.00,,,0.00,WUHU216DAVISVP2,2013-08-19 13:50:00,
2013-08-19 09:55:00,83.3,77.7,30.08,South,190,0.0,1.0,83,0.00,,,0.00,WUHU216DAVISVP2,2013-08-19 13:55:00,
2013-08-19 10:00:00,83.6,78.7,30.08,SW,233,0.0,1.0,85,0.00,,,0.00,WUHU216DAVISVP2,2013-08-19 14:00:00,
2013-08-19 10:05:00,83.8,78.9,30.08,ENE,78,0.0,1.0,85,0.00,,,0.00,WUHU216DAVISVP2,2013-08-19 14:05:00,
2013-08-19 10:10:00,83.7,78.8,30.08,South,175,0.0,1.0,85,0.00,,,0.00,WUHU216DAVISVP2,2013-08-19 14:10:00,
2013-08-19 10:15:00,83.6,79.0,30.08,South,182,0.0,1.0,86,0.00,,,0.00,WUHU216DAVISVP2,2013-08-19 14:15:00,
2013-08-19 10:20:00,83.4,78.1,30.08,SSE,153,0.0,3.0,84,0.00,,,0.00,WUHU216DAVISVP2,2013-08-19 14:20:00,
2013-08-19 10:25:00,82.5,75.1,30.09,East,86,0.0,3.0,78,0.00,,,0.00,WUHU216DAVISVP2,2013-08-19 14:25:00,
2013-08-19 10:30:00,81.8,74.4,30.09,North,351,0.0,1.0,78,0.00,,,0.00,WUHU216DAVISVP2,2013-08-19 14:30:00,
2013-08-19 10:35:00,81.5,74.5,30.09,North,351,0.0,0.0,79,0.00,,,0.00,WUHU216DAVISVP2,2013-08-19 14:35:00,
2013-08-19 10:40:00,81.5,75.9,30.09,North,351,0.0,1.0,83,0.00,,,0.00,WUHU216DAVISVP2,2013-08-19 14:40:00,
2013-08-19 10:45:00,81.6,77.4,30.09,North,351,0.0,1.0,87,0.01,,,0.01,WUHU216DAVISVP2,2013-08-19 14:45:00,
2013-08-19 10:50:00,81.4,77.9,30.08,SW,234,0.0,1.0,89,0.05,,,0.05,WUHU216DAVISVP2,2013-08-19 14:50:00,
2013-08-19 10:55:00,81.3,78.1,30.08,SW,235,0.0,1.0,90,0.05,,,0.05,WUHU216DAVISVP2,2013-08-19 14:55:00,
2013-08-19 11:00:00,81.2,78.3,30.08,SW,235,0.0,1.0,91,0.05,,,0.05,WUHU216DAVISVP2,2013-08-19 15:00:00,
2013-08-19 11:05:00,81.2,78.3,30.09,SW,235,0.0,0.0,91,0.05,,,0.05,WUHU216DAVISVP2,2013-08-19 15:05:00,
2013-08-19 11:10:00,81.3,79.1,30.08,SW,235,0.0,0.0,93,0.05,,,0.05,WUHU216DAVISVP2,2013-08-19 15:10:00,
2013-08-19 11:15:00,81.4,79.2,30.08,SW,235,0.0,0.0,93,0.05,,,0.05,WUHU216DAVISVP2,2013-08-19 15:15:00,
2013-08-19 11:20:00,81.4,78.8,30.08,SW,234,0.0,1.0,92,0.05,,,0.05,WUHU216DAVISVP2,2013-08-19 15:20:00,
2013-08-19 11:25:00,81.4,78.8,30.08,SW,234,0.0,1.0,92,0.05,,,0.05,WUHU216DAVISVP2,2013-08-19 15:25:00,
2013-08-19 11:30:00,81.5,78.9,30.09,SW,234,0.0,0.0,92,0.05,,,0.05,WUHU216DAVISVP2,2013-08-19 15:30:00,
2013-08-19 11:35:00,81.9,79.3,30.09,SW,234,0.0,1.0,92,0.05,,,0.05,WUHU216DAVISVP2,2013-08-19 15:35:00,
2013-08-19 11:40:00,82.3,79.7,30.09,SW,234,0.0,1.0,92,0.05,,,0.05,WUHU216DAVISVP2,2013-08-19 15:40:00,
2013-08-19 11:45:00,82.6,79.4,30.09,SW,234,0.0,0.0,90,0.04,,,0.05,WUHU216DAVISVP2,2013-08-19 15:45:00,
2013-08-19 11:50:00,82.9,79.3,30.08,SW,234,0.0,0.0,89,0.00,,,0.05,WUHU216DAVISVP2,2013-08-19 15:50:00,
2013-08-19 11:55:00,83.4,79.2,30.08,SW,234,0.0,0.0,87,0.00,,,0.05,WUHU216DAVISVP2,2013-08-19 15:55:00,
2013-08-19 12:00:00,84.2,79.3,30.08,SW,230,0.0,0.0,85,0.00,,,0.05,WUHU216DAVISVP2,2013-08-19 16:00:00,
2013-08-19 12:05:00,84.8,79.5,30.08,SW,229,0.0,2.0,84,0.00,,,0.05,WUHU216DAVISVP2,2013-08-19 16:05:00,
2013-08-19 12:10:00,85.4,79.7,30.08,NE,51,0.0,2.0,83,0.00,,,0.05,WUHU216DAVISVP2,2013-08-19 16:10:00,
2013-08-19 12:15:00,85.9,80.2,30.08,East,88,0.0,2.0,83,0.00,,,0.05,WUHU216DAVISVP2,2013-08-19 16:15:00,
2013-08-19 12:20:00,86.1,79.7,30.08,ESE,109,0.0,1.0,81,0.00,,,0.05,WUHU216DAVISVP2,2013-08-19 16:20:00,
2013-08-19 12:25:00,86.2,80.2,30.07,ENE,58,0.0,1.0,82,0.00,,,0.05,WUHU216DAVISVP2,2013-08-19 16:25:00,
2013-08-19 12:30:00,86.3,79.9,30.08,NE,52,0.0,4.0,81,0.00,,,0.05,WUHU216DAVISVP2,2013-08-19 16:30:00,
2013-08-19 12:35:00,86.4,80.4,30.08,ENE,75,0.0,4.0,82,0.00,,,0.05,WUHU216DAVISVP2,2013-08-19 16:35:00,
2013-08-19 12:40:00,86.4,79.6,30.08,East,85,0.0,3.0,80,0.00,,,0.05,WUHU216DAVISVP2,2013-08-19 16:40:00,
2013-08-19 12:45:00,86.4,80.0,30.07,South,176,0.0,3.0,81,0.00,,,0.05,WUHU216DAVISVP2,2013-08-19 16:45:00,
2013-08-19 12:50:00,87.0,80.9,30.07,ESE,114,0.0,1.0,82,0.00,,,0.05,WUHU216DAVISVP2,2013-08-19 16:50:00,
2013-08-19 12:55:00,86.8,79.7,30.08,South,181,0.0,4.0,79,0.00,,,0.05,WUHU216DAVISVP2,2013-08-19 16:55:00,
2013-08-19 13:00:00,86.1,79.0,30.08,ENE,61,0.0,4.0,79,0.00,,,0.05,WUHU216DAVISVP2,2013-08-19 17:00:00,
2013-08-19 13:05:00,85.4,78.7,30.07,East,86,0.0,4.0,80,0.00,,,0.05,WUHU216DAVISVP2,2013-08-19 17:05:00,
2013-08-19 13:10:00,85.3,79.3,30.07,SE,138,0.0,4.0,82,0.00,,,0.05,WUHU216DAVISVP2,2013-08-19 17:10:00,
2013-08-19 13:15:00,85.4,78.7,30.07,SE,138,0.0,1.0,80,0.00,,,0.05,WUHU216DAVISVP2,2013-08-19 17:15:00,
2013-08-19 13:21:00,85.9,79.1,30.06,SE,126,0.0,1.0,80,0.00,,,0.05,WUHU216DAVISVP2,2013-08-19 17:21:00,
2013-08-19 13:26:00,86.6,79.1,30.06,North,9,0.0,2.0,78,0.00,,,0.05,WUHU216DAVISVP2,2013-08-19 17:26:00,
2013-08-19 13:31:00,86.8,79.3,30.06,North,9,0.0,2.0,78,0.00,,,0.05,WUHU216DAVISVP2,2013-08-19 17:31:00,
2013-08-19 13:36:00,87.0,79.9,30.06,SW,217,0.0,6.0,79,0.00,,,0.05,WUHU216DAVISVP2,2013-08-19 17:36:00,
2013-08-19 13:41:00,87.2,80.4,30.06,East,92,1.0,6.0,80,0.00,,,0.05,WUHU216DAVISVP2,2013-08-19 17:41:00,
2013-08-19 13:46:00,87.1,80.7,30.06,East,92,0.0,4.0,81,0.00,,,0.05,WUHU216DAVISVP2,2013-08-19 17:46:00,
2013-08-19 13:51:00,87.2,80.4,30.06,NE,45,0.0,3.0,80,0.00,,,0.05,WUHU216DAVISVP2,2013-08-19 17:51:00,
2013-08-19 13:56:00,86.9,79.4,30.06,South,169,0.0,3.0,78,0.00,,,0.05,WUHU216DAVISVP2,2013-08-19 17:56:00,
2013-08-19 14:01:00,86.4,78.9,30.07,SSW,211,1.0,3.0,78,0.00,,,0.05,WUHU216DAVISVP2,2013-08-19 18:01:00,
2013-08-19 14:06:00,86.0,78.5,30.06,East,96,1.0,3.0,78,0.00,,,0.05,WUHU216DAVISVP2,2013-08-19 18:06:00,
2013-08-19 14:11:00,85.9,78.4,30.05,NNE,18,0.0,2.0,78,0.00,,,0.05,WUHU216DAVISVP2,2013-08-19 18:11:00,
2013-08-19 14:16:00,86.4,78.9,30.05,SSE,163,1.0,2.0,78,0.00,,,0.05,WUHU216DAVISVP2,2013-08-19 18:16:00,
2013-08-19 14:21:00,87.1,79.6,30.05,South,190,1.0,2.0,78,0.00,,,0.05,WUHU216DAVISVP2,2013-08-19 18:21:00,
2013-08-19 14:26:00,87.3,79.0,30.05,East,80,0.0,2.0,76,0.00,,,0.05,WUHU216DAVISVP2,2013-08-19 18:26:00,
2013-08-19 14:30:00,87.4,79.1,30.04,East,98,1.0,2.0,76,0.00,,,0.05,WUHU216DAVISVP2,2013-08-19 18:30:00,
2013-08-19 14:35:00,87.2,78.9,30.05,ESE,119,0.0,4.0,76,0.00,,,0.05,WUHU216DAVISVP2,2013-08-19 18:35:00,
2013-08-19 14:40:00,87.2,79.3,30.04,ESE,115,0.0,4.0,77,0.00,,,0.05,WUHU216DAVISVP2,2013-08-19 18:40:00,
2013-08-19 14:45:00,87.1,78.8,30.04,ENE,65,0.0,4.0,76,0.00,,,0.05,WUHU216DAVISVP2,2013-08-19 18:45:00,
2013-08-19 14:50:00,87.2,79.3,30.04,NE,53,0.0,4.0,77,0.00,,,0.05,WUHU216DAVISVP2,2013-08-19 18:50:00,
2013-08-19 14:55:00,87.5,79.2,30.04,NE,53,0.0,2.0,76,0.00,,,0.05,WUHU216DAVISVP2,2013-08-19 18:55:00,
2013-08-19 15:00:00,87.2,78.9,30.03,ENE,77,1.0,5.0,76,0.00,,,0.05,WUHU216DAVISVP2,2013-08-19 19:00:00,
2013-08-19 15:05:00,86.7,79.2,30.03,East,87,1.0,5.0,78,0.00,,,0.05,WUHU216DAVISVP2,2013-08-19 19:05:00,
2013-08-19 15:10:00,86.5,79.7,30.03,East,80,0.0,3.0,80,0.00,,,0.05,WUHU216DAVISVP2,2013-08-19 19:10:00,
2013-08-19 15:15:00,86.9,80.1,30.03,ENE,71,0.0,2.0,80,0.00,,,0.05,WUHU216DAVISVP2,2013-08-19 19:15:00,
2013-08-19 15:20:00,86.8,78.9,30.02,East,79,0.0,5.0,77,0.00,,,0.05,WUHU216DAVISVP2,2013-08-19 19:20:00,
2013-08-19 15:25:00,86.9,79.4,30.02,ENE,63,1.0,5.0,78,0.00,,,0.05,WUHU216DAVISVP2,2013-08-19 19:25:00,
2013-08-19 15:31:00,86.8,79.3,30.02,ESE,111,2.0,3.0,78,0.00,,,0.05,WUHU216DAVISVP2,2013-08-19 19:31:00,
2013-08-19 15:36:00,86.5,79.4,30.02,East,88,1.0,3.0,79,0.00,,,0.05,WUHU216DAVISVP2,2013-08-19 19:36:00,
2013-08-19 15:41:00,86.3,79.5,30.01,East,87,0.0,3.0,80,0.00,,,0.05,WUHU216DAVISVP2,2013-08-19 19:41:00,
2013-08-19 15:46:00,86.5,79.7,30.01,ENE,57,0.0,2.0,80,0.00,,,0.05,WUHU216DAVISVP2,2013-08-19 19:46:00,
2013-08-19 15:51:00,86.6,80.2,30.01,North,9,0.0,5.0,81,0.00,,,0.05,WUHU216DAVISVP2,2013-08-19 19:51:00,
2013-08-19 15:56:00,86.6,79.8,30.01,East,79,0.0,5.0,80,0.00,,,0.05,WUHU216DAVISVP2,2013-08-19 19:56:00,
2013-08-19 16:01:00,86.4,80.0,30.01,East,81,0.0,3.0,81,0.00,,,0.05,WUHU216DAVISVP2,2013-08-19 20:01:00,
2013-08-19 16:06:00,86.1,79.7,30.01,East,90,0.0,3.0,81,0.00,,,0.05,WUHU216DAVISVP2,2013-08-19 20:06:00,
2013-08-19 16:11:00,86.1,80.1,30.01,SSE,150,0.0,4.0,82,0.00,,,0.05,WUHU216DAVISVP2,2013-08-19 20:11:00,
2013-08-19 16:16:00,86.5,80.5,30.01,ENE,57,0.0,4.0,82,0.00,,,0.05,WUHU216DAVISVP2,2013-08-19 20:16:00,
2013-08-19 16:21:00,86.6,79.8,30.00,East,92,0.0,2.0,80,0.00,,,0.05,WUHU216DAVISVP2,2013-08-19 20:21:00,
2013-08-19 16:26:00,86.6,80.6,30.00,NW,323,0.0,2.0,82,0.00,,,0.05,WUHU216DAVISVP2,2013-08-19 20:26:00,
2013-08-19 16:31:00,86.7,79.9,30.00,ENE,69,0.0,2.0,80,0.00,,,0.05,WUHU216DAVISVP2,2013-08-19 20:31:00,
2013-08-19 16:36:00,86.5,80.1,30.00,ENE,69,0.0,2.0,81,0.00,,,0.05,WUHU216DAVISVP2,2013-08-19 20:36:00,
2013-08-19 16:41:00,86.3,80.3,30.00,NNE,26,1.0,3.0,82,0.00,,,0.05,WUHU216DAVISVP2,2013-08-19 20:41:00,
2013-08-19 16:46:00,86.5,80.1,30.00,NNE,26,1.0,3.0,81,0.00,,,0.05,WUHU216DAVISVP2,2013-08-19 20:46:00,
2013-08-19 16:51:00,86.5,80.1,30.00,WSW,242,0.0,4.0,81,0.00,,,0.05,WUHU216DAVISVP2,2013-08-19 20:51:00,
2013-08-19 16:56:00,86.8,80.4,30.00,ENE,78,2.0,4.0,81,0.00,,,0.05,WUHU216DAVISVP2,2013-08-19 20:56:00,
2013-08-19 17:01:00,86.7,80.3,30.00,ENE,63,0.0,2.0,81,0.00,,,0.05,WUHU216DAVISVP2,2013-08-19 21:01:00,
2013-08-19 17:06:00,86.8,80.8,30.00,SW,234,0.0,2.0,82,0.00,,,0.05,WUHU216DAVISVP2,2013-08-19 21:06:00,
2013-08-19 17:11:00,86.9,80.5,30.00,NE,55,0.0,3.0,81,0.00,,,0.05,WUHU216DAVISVP2,2013-08-19 21:11:00,
2013-08-19 17:16:00,86.6,80.2,30.00,ENE,78,0.0,3.0,81,0.00,,,0.05,WUHU216DAVISVP2,2013-08-19 21:16:00,
2013-08-19 17:21:00,86.4,80.0,29.99,ESE,122,1.0,3.0,81,0.00,,,0.05,WUHU216DAVISVP2,2013-08-19 21:21:00,
2013-08-19 17:26:00,86.1,80.4,30.00,East,84,0.0,4.0,83,0.00,,,0.05,WUHU216DAVISVP2,2013-08-19 21:26:00,
2013-08-19 17:31:00,85.8,80.1,30.00,East,93,0.0,4.0,83,0.00,,,0.05,WUHU216DAVISVP2,2013-08-19 21:31:00,
2013-08-19 17:36:00,85.5,80.2,30.00,NE,42,0.0,3.0,84,0.00,,,0.05,WUHU216DAVISVP2,2013-08-19 21:36:00,
2013-08-19 17:40:00,85.5,80.2,29.99,South,177,0.0,3.0,84,0.00,,,0.05,WUHU216DAVISVP2,2013-08-19 21:40:00,
2013-08-19 17:45:00,85.7,80.0,29.99,East,86,0.0,3.0,83,0.00,,,0.05,WUHU216DAVISVP2,2013-08-19 21:45:00,
2013-08-19 17:50:00,85.7,79.7,29.99,East,90,1.0,2.0,82,0.00,,,0.05,WUHU216DAVISVP2,2013-08-19 21:50:00,
2013-08-19 17:56:00,85.6,79.6,29.99,ESE,113,0.0,2.0,82,0.00,,,0.05,WUHU216DAVISVP2,2013-08-19 21:56:00,
2013-08-19 18:00:00,85.5,79.5,29.99,ENE,74,0.0,3.0,82,0.00,,,0.05,WUHU216DAVISVP2,2013-08-19 22:00:00,
2013-08-19 18:06:00,85.2,78.8,30.00,East,94,2.0,3.0,81,0.00,,,0.05,WUHU216DAVISVP2,2013-08-19 22:06:00,
2013-08-19 18:11:00,84.8,78.8,29.99,ENE,68,0.0,2.0,82,0.00,,,0.05,WUHU216DAVISVP2,2013-08-19 22:11:00,
2013-08-19 18:16:00,84.8,79.1,29.99,ENE,69,0.0,2.0,83,0.00,,,0.05,WUHU216DAVISVP2,2013-08-19 22:16:00,
2013-08-19 18:21:00,84.6,79.3,29.99,East,93,0.0,2.0,84,0.00,,,0.05,WUHU216DAVISVP2,2013-08-19 22:21:00,
2013-08-19 18:26:00,84.4,79.1,29.99,East,86,1.0,4.0,84,0.00,,,0.05,WUHU216DAVISVP2,2013-08-19 22:26:00,
2013-08-19 18:31:00,84.2,78.9,29.99,SE,140,0.0,4.0,84,0.00,,,0.05,WUHU216DAVISVP2,2013-08-19 22:31:00,
2013-08-19 18:36:00,84.3,79.4,29.99,NNE,20,0.0,2.0,85,0.00,,,0.05,WUHU216DAVISVP2,2013-08-19 22:36:00,
2013-08-19 18:41:00,84.4,79.5,29.99,NNE,25,0.0,1.0,85,0.00,,,0.05,WUHU216DAVISVP2,2013-08-19 22:41:00,
2013-08-19 18:46:00,84.2,79.3,29.99,ENE,73,0.0,2.0,85,0.00,,,0.05,WUHU216DAVISVP2,2013-08-19 22:46:00,
2013-08-19 18:51:00,84.1,79.5,29.99,ENE,73,0.0,2.0,86,0.00,,,0.05,WUHU216DAVISVP2,2013-08-19 22:51:00,
2013-08-19 18:56:00,84.1,79.5,29.99,ENE,73,1.0,2.0,86,0.00,,,0.05,WUHU216DAVISVP2,2013-08-19 22:56:00,
2013-08-19 19:01:00,83.9,79.3,30.00,ENE,74,0.0,4.0,86,0.00,,,0.05,WUHU216DAVISVP2,2013-08-19 23:01:00,
2013-08-19 19:06:00,83.7,79.5,30.00,ENE,65,0.0,4.0,87,0.00,,,0.05,WUHU216DAVISVP2,2013-08-19 23:06:00,
2013-08-19 19:11:00,83.5,79.3,30.00,ENE,65,0.0,4.0,87,0.00,,,0.05,WUHU216DAVISVP2,2013-08-19 23:11:00,
2013-08-19 19:16:00,83.5,79.6,30.00,ENE,58,0.0,1.0,88,0.00,,,0.05,WUHU216DAVISVP2,2013-08-19 23:16:00,
2013-08-19 19:21:00,83.4,79.5,30.00,ENE,59,0.0,2.0,88,0.00,,,0.05,WUHU216DAVISVP2,2013-08-19 23:21:00,
2013-08-19 19:26:00,83.3,79.4,30.00,ENE,60,0.0,2.0,88,0.00,,,0.05,WUHU216DAVISVP2,2013-08-19 23:26:00,
2013-08-19 19:31:00,83.2,79.3,30.00,East,94,0.0,2.0,88,0.00,,,0.05,WUHU216DAVISVP2,2013-08-19 23:31:00,
2013-08-19 19:36:00,83.1,79.5,30.00,East,94,0.0,1.0,89,0.00,,,0.05,WUHU216DAVISVP2,2013-08-19 23:36:00,
2013-08-19 19:41:00,83.0,79.4,30.01,ESE,103,0.0,1.0,89,0.00,,,0.05,WUHU216DAVISVP2,2013-08-19 23:41:00,
2013-08-19 19:46:00,82.9,79.3,30.01,ESE,103,0.0,1.0,89,0.00,,,0.05,WUHU216DAVISVP2,2013-08-19 23:46:00,
2013-08-19 19:51:00,82.8,79.2,30.01,East,93,0.0,2.0,89,0.00,,,0.05,WUHU216DAVISVP2,2013-08-19 23:51:00,
2013-08-19 19:56:00,82.8,79.2,30.01,East,94,0.0,2.0,89,0.00,,,0.05,WUHU216DAVISVP2,2013-08-19 23:56:00,
2013-08-19 20:01:00,82.7,79.5,30.01,East,94,0.0,1.0,90,0.00,,,0.05,WUHU216DAVISVP2,2013-08-20 00:01:00,
2013-08-19 20:06:00,82.7,79.5,30.02,East,93,0.0,1.0,90,0.00,,,0.05,WUHU216DAVISVP2,2013-08-20 00:06:00,
2013-08-19 20:11:00,82.6,79.0,30.02,East,94,0.0,0.0,89,0.00,,,0.05,WUHU216DAVISVP2,2013-08-20 00:11:00,
2013-08-19 20:16:00,82.6,79.0,30.02,East,94,0.0,1.0,89,0.00,,,0.05,WUHU216DAVISVP2,2013-08-20 00:16:00,
2013-08-19 20:21:00,82.6,79.4,30.02,East,94,0.0,1.0,90,0.00,,,0.05,WUHU216DAVISVP2,2013-08-20 00:21:00,
2013-08-19 20:26:00,82.5,79.3,30.02,East,94,0.0,1.0,90,0.00,,,0.05,WUHU216DAVISVP2,2013-08-20 00:26:00,
2013-08-19 20:31:00,82.5,79.3,30.02,East,94,0.0,1.0,90,0.00,,,0.05,WUHU216DAVISVP2,2013-08-20 00:31:00,
2013-08-19 20:36:00,82.5,79.3,30.02,East,94,1.0,1.0,90,0.00,,,0.05,WUHU216DAVISVP2,2013-08-20 00:36:00,
2013-08-19 20:41:00,82.4,79.2,30.02,East,94,0.0,1.0,90,0.00,,,0.05,WUHU216DAVISVP2,2013-08-20 00:41:00,
2013-08-19 20:46:00,82.4,79.2,30.02,East,94,0.0,1.0,90,0.00,,,0.05,WUHU216DAVISVP2,2013-08-20 00:46:00,
2013-08-19 20:51:00,82.4,79.2,30.02,East,93,0.0,1.0,90,0.00,,,0.05,WUHU216DAVISVP2,2013-08-20 00:51:00,
2013-08-19 20:56:00,82.4,79.2,30.03,East,93,0.0,1.0,90,0.00,,,0.05,WUHU216DAVISVP2,2013-08-20 00:56:00,
2013-08-19 21:01:00,82.3,79.1,30.03,East,93,0.0,0.0,90,0.00,,,0.05,WUHU216DAVISVP2,2013-08-20 01:01:00,
2013-08-19 21:06:00,82.3,79.1,30.03,East,93,0.0,0.0,90,0.00,,,0.05,WUHU216DAVISVP2,2013-08-20 01:06:00,
2013-08-19 21:11:00,82.3,79.1,30.03,East,93,0.0,0.0,90,0.00,,,0.05,WUHU216DAVISVP2,2013-08-20 01:11:00,
2013-08-19 21:16:00,82.2,79.0,30.04,East,92,0.0,0.0,90,0.00,,,0.05,WUHU216DAVISVP2,2013-08-20 01:16:00,
2013-08-19 21:21:00,82.2,79.0,30.04,East,93,0.0,0.0,90,0.00,,,0.05,WUHU216DAVISVP2,2013-08-20 01:21:00,
2013-08-19 21:26:00,82.2,79.0,30.04,East,92,0.0,0.0,90,0.00,,,0.05,WUHU216DAVISVP2,2013-08-20 01:26:00,
2013-08-19 21:31:00,82.2,79.0,30.04,East,92,0.0,0.0,90,0.00,,,0.05,WUHU216DAVISVP2,2013-08-20 01:31:00,
2013-08-19 21:36:00,82.2,79.0,30.04,East,95,0.0,0.0,90,0.00,,,0.05,WUHU216DAVISVP2,2013-08-20 01:36:00,
2013-08-19 21:41:00,82.2,79.0,30.04,East,95,0.0,0.0,90,0.00,,,0.05,WUHU216DAVISVP2,2013-08-20 01:41:00,
2013-08-19 21:46:00,82.2,79.0,30.04,East,95,0.0,0.0,90,0.00,,,0.05,WUHU216DAVISVP2,2013-08-20 01:46:00,
2013-08-19 21:51:00,82.2,79.0,30.04,East,94,0.0,0.0,90,0.00,,,0.05,WUHU216DAVISVP2,2013-08-20 01:51:00,
2013-08-19 21:56:00,82.1,79.2,30.05,East,96,0.0,1.0,91,0.00,,,0.05,WUHU216DAVISVP2,2013-08-20 01:56:00,
2013-08-19 22:01:00,82.1,79.2,30.05,East,96,0.0,1.0,91,0.00,,,0.05,WUHU216DAVISVP2,2013-08-20 02:01:00,
2013-08-19 22:06:00,82.1,79.2,30.05,East,95,0.0,0.0,91,0.00,,,0.05,WUHU216DAVISVP2,2013-08-20 02:06:00,
2013-08-19 22:11:00,82.1,79.2,30.05,East,95,0.0,0.0,91,0.00,,,0.05,WUHU216DAVISVP2,2013-08-20 02:11:00,
2013-08-19 22:16:00,82.1,79.2,30.05,East,95,0.0,0.0,91,0.00,,,0.05,WUHU216DAVISVP2,2013-08-20 02:16:00,
2013-08-19 22:21:00,82.1,79.2,30.05,East,95,0.0,0.0,91,0.00,,,0.05,WUHU216DAVISVP2,2013-08-20 02:21:00,
2013-08-19 22:26:00,82.1,79.2,30.06,East,95,0.0,0.0,91,0.00,,,0.05,WUHU216DAVISVP2,2013-08-20 02:26:00,
2013-08-19 22:31:00,82.0,79.1,30.06,East,95,0.0,0.0,91,0.00,,,0.05,WUHU216DAVISVP2,2013-08-20 02:31:00,
2013-08-19 22:36:00,81.9,79.0,30.06,East,95,0.0,0.0,91,0.00,,,0.05,WUHU216DAVISVP2,2013-08-20 02:36:00,
2013-08-19 22:41:00,81.9,79.0,30.06,East,94,0.0,0.0,91,0.00,,,0.05,WUHU216DAVISVP2,2013-08-20 02:41:00,
2013-08-19 22:46:00,81.8,78.9,30.06,East,94,0.0,0.0,91,0.00,,,0.05,WUHU216DAVISVP2,2013-08-20 02:46:00,
2013-08-19 22:51:00,81.8,78.9,30.06,East,94,0.0,0.0,91,0.00,,,0.05,WUHU216DAVISVP2,2013-08-20 02:51:00,
2013-08-19 22:56:00,81.7,78.8,30.06,East,94,0.0,0.0,91,0.00,,,0.05,WUHU216DAVISVP2,2013-08-20 02:56:00,
2013-08-19 23:01:00,81.6,78.7,30.06,East,94,0.0,0.0,91,0.00,,,0.05,WUHU216DAVISVP2,2013-08-20 03:01:00,
2013-08-19 23:06:00,81.6,78.7,30.06,East,94,0.0,0.0,91,0.00,,,0.05,WUHU216DAVISVP2,2013-08-20 03:06:00,
2013-08-19 23:11:00,81.6,78.7,30.06,East,94,0.0,0.0,91,0.00,,,0.05,WUHU216DAVISVP2,2013-08-20 03:11:00,
2013-08-19 23:16:00,81.6,78.7,30.06,East,95,0.0,0.0,91,0.00,,,0.05,WUHU216DAVISVP2,2013-08-20 03:16:00,
2013-08-19 23:21:00,81.5,78.6,30.06,East,94,0.0,0.0,91,0.00,,,0.05,WUHU216DAVISVP2,2013-08-20 03:21:00,
2013-08-19 23:26:00,81.4,78.8,30.07,East,94,0.0,0.0,92,0.00,,,0.05,WUHU216DAVISVP2,2013-08-20 03:26:00,
2013-08-19 23:31:00,81.4,78.8,30.07,East,94,0.0,0.0,92,0.00,,,0.05,WUHU216DAVISVP2,2013-08-20 03:31:00,
2013-08-19 23:36:00,81.3,78.7,30.07,East,94,0.0,0.0,92,0.00,,,0.05,WUHU216DAVISVP2,2013-08-20 03:36:00,
2013-08-19 23:41:00,81.2,78.6,30.07,East,94,0.0,0.0,92,0.00,,,0.05,WUHU216DAVISVP2,2013-08-20 03:41:00,
2013-08-19 23:46:00,81.1,78.5,30.07,East,94,0.0,0.0,92,0.00,,,0.05,WUHU216DAVISVP2,2013-08-20 03:46:00,
2013-08-19 23:51:00,81.0,78.4,30.07,East,94,0.0,0.0,92,0.00,,,0.05,WUHU216DAVISVP2,2013-08-20 03:51:00,
2013-08-19 23:56:00,80.9,78.3,30.07,East,94,0.0,0.0,92,0.00,,,0.05,WUHU216DAVISVP2,2013-08-20 03:56:00,